createdAt,value
2022-11-28T00:03:19.179Z,83.53
2022-11-28T00:08:21.793Z,91.73
2022-11-28T00:13:24.155Z,78.70
2022-11-28T00:18:26.526Z,76.70
2022-11-28T00:23:30.293Z,78.10
2022-11-28T00:28:32.715Z,88.50
2022-11-28T00:33:34.997Z,80.40
2022-11-28T00:38:37.651Z,89.20
2022-11-28T00:43:40.806Z,91.73
2022-11-28T00:48:43.381Z,80.13
2022-11-28T00:53:48.015Z,89.20
2022-11-28T00:58:50.750Z,91.30
2022-11-28T01:03:54.646Z,85.53
2022-11-28T01:08:59.451Z,89.37
2022-11-28T01:14:02.748Z,90.50
2022-11-28T01:19:06.357Z,87.93
2022-11-28T01:24:09.257Z,95.57
2022-11-28T01:29:12.058Z,97.70
2022-11-28T01:34:14.584Z,96.63
2022-11-28T01:39:16.935Z,90.40
2022-11-28T01:44:19.222Z,90.20
2022-11-28T01:49:30.629Z,88.53
2022-11-28T01:54:35.783Z,88.23
2022-11-28T01:59:47.550Z,86.73
2022-11-28T02:04:50.998Z,89.40
2022-11-28T02:09:53.359Z,88.53
2022-11-28T02:15:10.920Z,79.30
2022-11-28T02:20:34.287Z,82.90
2022-11-28T02:25:47.699Z,82.30
2022-11-28T02:31:38.242Z,81.97
2022-11-28T02:36:56.161Z,79.30
2022-11-28T02:42:06.688Z,80.77
2022-11-28T02:47:15.200Z,81.90
2022-11-28T02:52:39.004Z,81.20
2022-11-28T02:57:47.099Z,74.43
2022-11-28T03:03:05.776Z,82.07
2022-11-28T03:08:28.176Z,86.63
2022-11-28T03:13:52.705Z,77.53
2022-11-28T03:19:05.590Z,84.60
2022-11-28T03:24:25.551Z,91.83
2022-11-28T03:29:52.927Z,87.90
2022-11-28T03:35:02.793Z,84.43
2022-11-28T03:40:13.961Z,85.50
2022-11-28T03:45:23.670Z,84.53
2022-11-28T03:50:33.690Z,86.73
2022-11-28T03:55:43.674Z,87.60
2022-11-28T04:00:57.140Z,89.43
2022-11-28T04:06:06.523Z,87.17
2022-11-28T04:11:23.077Z,88.60
2022-11-28T04:16:38.133Z,94.90
2022-11-28T04:22:02.203Z,89.53
2022-11-28T04:27:14.621Z,89.37
2022-11-28T04:32:19.555Z,84.80
2022-11-28T04:37:25.129Z,86.20
2022-11-28T04:42:35.215Z,87.23
2022-11-28T04:47:37.846Z,91.10
2022-11-28T04:53:09.463Z,82.00
2022-11-28T04:58:21.007Z,103.10
2022-11-28T05:03:27.990Z,91.57
2022-11-28T05:08:30.483Z,91.13
2022-11-28T05:13:32.758Z,89.13
2022-11-28T05:18:35.108Z,91.47
2022-11-28T05:23:38.629Z,84.50
2022-11-28T05:28:44.033Z,79.60
2022-11-28T05:33:46.546Z,84.47
2022-11-28T05:38:48.874Z,77.30
2022-11-28T05:43:52.202Z,71.07
2022-11-28T05:48:54.651Z,73.90
2022-11-28T05:53:57.003Z,81.63
2022-11-28T05:58:59.510Z,79.00
2022-11-28T06:04:02.125Z,70.20
2022-11-28T06:09:06.104Z,75.07
2022-11-28T06:14:08.563Z,78.17
2022-11-28T06:19:11.999Z,82.37
2022-11-28T06:24:14.441Z,83.17
2022-11-28T06:29:16.769Z,107.70
2022-11-28T06:34:19.126Z,86.17
2022-11-28T06:39:21.442Z,86.50
2022-11-28T06:44:24.110Z,91.93
2022-11-28T06:49:26.463Z,90.13
2022-11-28T06:54:29.151Z,83.77
2022-11-28T06:59:31.465Z,81.40
2022-11-28T07:04:33.912Z,78.00
2022-11-28T07:09:36.222Z,95.83
2022-11-28T07:14:38.524Z,83.57
2022-11-28T07:19:41.092Z,101.23
2022-11-28T07:24:43.642Z,79.23
2022-11-28T07:29:46.052Z,84.77
2022-11-28T07:34:50.373Z,83.57
2022-11-28T07:39:52.725Z,113.13
2022-11-28T07:44:55.030Z,236.70
2022-11-28T07:49:57.345Z,117.87
2022-11-28T07:54:59.773Z,131.23
2022-11-28T08:00:02.292Z,133.07
2022-11-28T08:05:14.740Z,83.37
2022-11-28T08:10:18.050Z,97.30
2022-11-28T08:15:20.451Z,97.70
2022-11-28T08:20:22.769Z,127.70
2022-11-28T08:25:25.070Z,119.00
2022-11-28T08:30:27.736Z,112.73
2022-11-28T08:35:30.423Z,116.37
2022-11-28T08:40:32.731Z,110.43
2022-11-28T08:45:37.439Z,93.37
2022-11-28T08:50:48.242Z,94.03
2022-11-28T08:55:50.649Z,78.23
2022-11-28T09:00:53.163Z,86.53
2022-11-28T09:06:02.638Z,110.10
2022-11-28T09:11:08.257Z,79.50
2022-11-28T09:16:10.775Z,97.53
2022-11-28T09:21:15.433Z,86.37
2022-11-28T09:26:20.572Z,83.13
2022-11-28T09:31:23.204Z,74.03
2022-11-28T09:36:25.571Z,67.60
2022-11-28T09:41:52.308Z,69.60
2022-11-28T09:46:58.233Z,75.33
2022-11-28T09:52:32.865Z,73.63
2022-11-28T09:57:40.275Z,74.23
2022-11-28T10:03:44.452Z,67.50
2022-11-28T10:09:37.913Z,66.83
2022-11-28T10:15:00.803Z,69.97
2022-11-28T10:20:14.766Z,89.80
2022-11-28T10:25:22.899Z,70.80
2022-11-28T10:30:34.230Z,78.37
2022-11-28T10:35:46.249Z,75.13
2022-11-28T10:41:15.939Z,69.87
2022-11-28T10:46:41.650Z,67.30
2022-11-28T10:52:11.303Z,68.07
2022-11-28T10:57:30.993Z,68.33
2022-11-28T11:02:42.441Z,72.87
2022-11-28T11:07:53.447Z,64.97
2022-11-28T11:12:57.580Z,81.97
2022-11-28T11:18:27.464Z,59.57
2022-11-28T11:23:32.772Z,62.20
2022-11-28T11:28:47.830Z,62.77
2022-11-28T11:34:15.676Z,58.53
2022-11-28T11:39:25.633Z,58.13
2022-11-28T11:44:34.593Z,58.43
2022-11-28T11:49:46.346Z,56.97
2022-11-28T11:54:58.226Z,63.10
2022-11-28T12:00:10.687Z,65.20
2022-11-28T12:05:27.724Z,60.13
2022-11-28T12:10:45.354Z,51.27
2022-11-28T12:16:02.424Z,59.17
2022-11-28T12:21:21.896Z,54.00
2022-11-28T12:26:31.861Z,52.53
2022-11-28T12:31:55.807Z,47.70
2022-11-28T12:37:07.136Z,50.80
2022-11-28T12:42:24.196Z,61.53
2022-11-28T12:48:14.845Z,56.33
2022-11-28T12:53:32.040Z,64.17
2022-11-28T12:58:40.933Z,56.60
2022-11-28T13:04:02.013Z,52.37
2022-11-28T13:09:29.123Z,61.73
2022-11-28T13:14:57.463Z,70.73
2022-11-28T13:20:16.401Z,58.90
2022-11-28T13:25:48.076Z,57.73
2022-11-28T13:30:59.258Z,54.97
2022-11-28T13:36:02.960Z,54.57
2022-11-28T13:41:05.454Z,55.77
2022-11-28T13:46:09.186Z,56.80
2022-11-28T13:51:19.141Z,60.93
2022-11-28T13:56:28.866Z,57.83
2022-11-28T14:01:49.239Z,65.10
2022-11-28T14:06:58.877Z,77.57
2022-11-28T14:12:33.131Z,62.77
2022-11-28T14:18:39.315Z,71.80
2022-11-28T14:23:59.394Z,92.63
2022-11-28T14:29:04.981Z,63.77
2022-11-28T14:34:31.266Z,57.20
2022-11-28T14:39:35.026Z,64.57
2022-11-28T14:44:55.607Z,71.50
2022-11-28T14:50:04.944Z,73.53
2022-11-28T14:55:10.712Z,74.97
2022-11-28T15:00:38.864Z,75.33
2022-11-28T15:05:49.850Z,65.63
2022-11-28T15:11:07.999Z,60.30
2022-11-28T15:16:17.082Z,61.13
2022-11-28T15:21:21.034Z,68.53
2022-11-28T15:26:29.003Z,60.73
2022-11-28T15:31:31.461Z,57.10
2022-11-28T15:36:34.034Z,60.50
2022-11-28T15:41:36.605Z,54.27
2022-11-28T15:46:39.019Z,76.77
2022-11-28T15:51:51.466Z,66.37
2022-11-28T15:56:57.906Z,78.17
2022-11-28T16:02:14.012Z,89.03
2022-11-28T16:07:16.546Z,68.97
2022-11-28T16:12:19.200Z,76.20
2022-11-28T16:17:29.357Z,81.07
2022-11-28T16:22:38.045Z,87.20
2022-11-28T16:27:44.369Z,97.80
2022-11-28T16:32:46.679Z,82.13
2022-11-28T16:37:49.002Z,96.17
2022-11-28T16:42:56.182Z,74.80
2022-11-28T16:48:17.263Z,91.80
2022-11-28T16:54:07.484Z,98.40
2022-11-28T16:59:19.151Z,84.10
2022-11-28T17:04:22.752Z,101.43
2022-11-28T17:09:25.138Z,109.50
2022-11-28T17:14:27.432Z,131.00
2022-11-28T17:19:29.845Z,106.67
2022-11-28T17:24:34.952Z,132.40
2022-11-28T17:29:37.225Z,120.47
2022-11-28T17:34:42.061Z,104.80
2022-11-28T17:40:04.630Z,104.87
2022-11-28T17:45:14.886Z,86.70
2022-11-28T17:50:18.885Z,83.23
2022-11-28T17:55:21.362Z,88.53
2022-11-28T18:00:23.987Z,87.93
2022-11-28T18:05:26.532Z,84.70
2022-11-28T18:10:28.830Z,92.23
2022-11-28T18:15:32.675Z,82.07
2022-11-28T18:20:37.472Z,90.90
2022-11-28T18:25:44.308Z,86.07
2022-11-28T18:30:47.066Z,95.30
2022-11-28T18:35:49.673Z,100.33
2022-11-28T18:40:51.955Z,119.60
2022-11-28T18:45:54.429Z,88.03
2022-11-28T18:50:56.951Z,92.70
2022-11-28T18:56:03.271Z,91.40
2022-11-28T19:01:16.627Z,86.13
2022-11-28T19:06:20.216Z,76.60
2022-11-28T19:11:23.397Z,70.23
2022-11-28T19:16:32.436Z,110.93
2022-11-28T19:21:35.922Z,127.63
2022-11-28T19:26:38.409Z,97.97
2022-11-28T19:31:41.741Z,71.90
2022-11-28T19:36:46.540Z,79.50
2022-11-28T19:41:50.466Z,112.27
2022-11-28T19:46:54.126Z,76.73
2022-11-28T19:51:56.837Z,76.97
2022-11-28T19:56:59.196Z,63.83
2022-11-28T20:02:04.451Z,89.33
2022-11-28T20:07:07.260Z,86.37
2022-11-28T20:12:09.629Z,75.03
2022-11-28T20:17:12.517Z,59.47
2022-11-28T20:22:14.865Z,78.17
2022-11-28T20:27:17.162Z,130.67
2022-11-28T20:32:19.428Z,85.67
2022-11-28T20:37:25.624Z,65.37
2022-11-28T20:42:27.944Z,61.13
2022-11-28T20:47:30.417Z,60.00
2022-11-28T20:52:32.769Z,66.63
2022-11-28T20:57:35.032Z,67.70
2022-11-28T21:02:37.481Z,62.67
2022-11-28T21:07:39.814Z,63.00
2022-11-28T21:12:42.127Z,72.17
2022-11-28T21:17:44.715Z,63.70
2022-11-28T21:22:47.090Z,65.87
2022-11-28T21:27:49.480Z,57.67
2022-11-28T21:32:51.841Z,68.67
2022-11-28T21:37:54.181Z,68.03
2022-11-28T21:42:57.652Z,82.90
2022-11-28T21:48:00.176Z,119.00
2022-11-28T21:53:02.719Z,64.60
2022-11-28T21:58:05.062Z,78.03
2022-11-28T22:03:13.966Z,72.80
2022-11-28T22:08:17.049Z,76.23
2022-11-28T22:13:19.933Z,70.43
2022-11-28T22:18:22.637Z,67.80
2022-11-28T22:23:24.905Z,64.53
2022-11-28T22:28:27.552Z,70.27
2022-11-28T22:33:29.903Z,60.00
2022-11-28T22:38:33.130Z,54.77
2022-11-28T22:43:36.410Z,70.60
2022-11-28T22:48:39.276Z,65.33
2022-11-28T22:53:41.999Z,63.13
2022-11-28T22:58:45.709Z,58.97
2022-11-28T23:03:49.088Z,78.47
2022-11-28T23:08:52.525Z,61.03
2022-11-28T23:13:55.137Z,67.43
2022-11-28T23:19:00.137Z,65.27
2022-11-28T23:24:02.570Z,63.53
2022-11-28T23:29:06.004Z,56.57
2022-11-28T23:34:10.449Z,54.87
2022-11-28T23:39:22.272Z,51.80
2022-11-28T23:44:24.589Z,48.87
2022-11-28T23:49:26.854Z,54.67
2022-11-28T23:54:29.151Z,57.73
2022-11-28T23:59:31.700Z,49.37
